Time;durP1;ratioP1;P1;durP2;ratioP2;P2;SDS_P1;SDS_P2;PMS_P1;PMS_P2;Temp;Humidity;BMP_temperature;BMP_pressure;BME280_temperature;BME280_humidity;BME280_pressure;Samples;Min_cycle;Max_cycle;Signal;HPM_P1;HPM_P2
2023/06/15 00:01:23;;;;;;;4.57;1.77;;;20.80;99.90;;;;;;4085663;29;20219;-92
2023/06/15 00:03:25;;;;;;;10.73;1.65;;;20.80;99.90;;;;;;4085657;29;20202;-93
2023/06/15 00:05:25;;;;;;;3.05;1.70;;;20.80;99.90;;;;;;4101776;29;20171;-94
2023/06/15 00:07:26;;;;;;;6.30;2.13;;;20.80;99.90;;;;;;4101890;28;20191;-92
2023/06/15 00:09:27;;;;;;;4.97;1.90;;;20.70;99.90;;;;;;4086347;29;20184;-92
2023/06/15 00:11:28;;;;;;;7.35;2.22;;;20.60;99.90;;;;;;4085682;29;20266;-93
2023/06/15 00:13:29;;;;;;;6.50;2.03;;;20.60;99.90;;;;;;4101496;29;20183;-93
2023/06/15 00:15:30;;;;;;;4.88;2.20;;;20.70;99.90;;;;;;4085818;29;20167;-94
2023/06/15 00:17:31;;;;;;;6.75;2.03;;;20.60;99.90;;;;;;4101309;28;20199;-93
2023/06/15 00:19:32;;;;;;;5.68;2.15;;;20.60;99.90;;;;;;4085602;29;20203;-94
2023/06/15 00:21:34;;;;;;;5.57;1.83;;;20.60;99.90;;;;;;4085529;29;20234;-94
2023/06/15 00:23:34;;;;;;;4.68;2.03;;;20.60;99.90;;;;;;4085751;29;20167;-94
2023/06/15 00:25:36;;;;;;;12.40;2.00;;;20.60;99.90;;;;;;4085964;29;20180;-95
2023/06/15 00:27:37;;;;;;;4.97;2.22;;;20.60;99.90;;;;;;4101304;28;20211;-94
2023/06/15 00:29:38;;;;;;;8.32;2.40;;;20.60;99.90;;;;;;4085250;29;20190;-92
2023/06/15 00:31:40;;;;;;;12.77;2.35;;;20.60;99.90;;;;;;4086671;29;20230;-94
2023/06/15 00:33:41;;;;;;;9.65;2.10;;;20.50;99.90;;;;;;4086286;29;20183;-94
2023/06/15 00:35:41;;;;;;;7.15;2.25;;;20.40;99.90;;;;;;4085973;29;20612;-92
2023/06/15 00:37:42;;;;;;;8.07;2.25;;;20.30;99.90;;;;;;4101338;28;20199;-90
2023/06/15 00:39:43;;;;;;;8.30;2.05;;;20.20;99.90;;;;;;4102042;29;20229;-93
2023/06/15 00:41:44;;;;;;;7.72;2.40;;;20.20;99.90;;;;;;4085623;29;20680;-92
2023/06/15 00:43:45;;;;;;;4.93;1.90;;;20.10;99.90;;;;;;4085359;29;20167;-92
2023/06/15 00:45:46;;;;;;;14.48;2.22;;;20.10;99.90;;;;;;4085171;29;20218;-93
2023/06/15 00:47:48;;;;;;;5.10;2.03;;;20.10;99.90;;;;;;4101227;28;20198;-93
2023/06/15 00:49:50;;;;;;;9.15;2.30;;;20.10;99.90;;;;;;4100985;29;20206;-92
2023/06/15 00:51:51;;;;;;;9.63;2.40;;;20.10;99.90;;;;;;4085487;29;20222;-93
2023/06/15 00:53:53;;;;;;;6.43;2.00;;;20.10;99.90;;;;;;4101388;29;20201;-94
2023/06/15 00:55:54;;;;;;;5.38;2.03;;;20.10;99.90;;;;;;4101489;29;20167;-93
2023/06/15 00:57:56;;;;;;;11.38;2.20;;;20.00;99.90;;;;;;4084213;29;20707;-92
2023/06/15 00:59:57;;;;;;;7.20;2.25;;;20.00;99.90;;;;;;4100810;29;20171;-93
2023/06/15 01:01:58;;;;;;;9.70;2.25;;;20.10;99.90;;;;;;4101377;29;20219;-92
2023/06/15 01:03:59;;;;;;;4.35;2.20;;;20.00;99.90;;;;;;4100959;29;20170;-93
2023/06/15 01:06:10;;;;;;;9.73;2.50;;;20.00;99.90;;;;;;4084623;29;20608;-92
2023/06/15 01:08:14;;;;;;;17.50;2.50;;;20.00;99.90;;;;;;4100481;28;20186;-94
2023/06/15 01:10:17;;;;;;;7.32;2.30;;;20.10;99.90;;;;;;4083972;29;20175;-92
2023/06/15 01:12:18;;;;;;;15.73;2.30;;;20.00;99.90;;;;;;4100142;29;20170;-91
2023/06/15 01:14:25;;;;;;;6.57;2.72;;;20.00;99.90;;;;;;4107281;29;20640;-90
2023/06/15 01:16:37;;;;;;;9.90;2.45;;;20.10;99.90;;;;;;4115848;28;20698;-91
2023/06/15 01:18:46;;;;;;;8.90;2.30;;;20.10;99.90;;;;;;4102016;29;20574;-92
2023/06/15 01:20:48;;;;;;;12.10;2.28;;;20.10;99.90;;;;;;4100875;28;20186;-91
2023/06/15 01:22:59;;;;;;;13.32;2.28;;;20.10;99.90;;;;;;4100337;29;20265;-93
2023/06/15 01:25:16;;;;;;;6.30;2.15;;;20.10;99.90;;;;;;4100427;29;20178;-93
2023/06/15 01:27:18;;;;;;;13.98;2.42;;;20.10;99.90;;;;;;4100297;28;20226;-91
2023/06/15 01:29:21;;;;;;;13.70;2.30;;;20.20;99.90;;;;;;4084511;29;20179;-93
2023/06/15 01:31:22;;;;;;;12.10;2.20;;;20.20;99.90;;;;;;4100239;29;20162;-94
2023/06/15 01:33:23;;;;;;;7.32;2.63;;;20.20;99.90;;;;;;4100534;29;20182;-91
2023/06/15 01:35:24;;;;;;;3.88;2.20;;;20.10;99.90;;;;;;4101443;29;20658;-92
2023/06/15 01:37:25;;;;;;;4.78;2.58;;;19.90;99.90;;;;;;4101333;28;20285;-91
2023/06/15 01:39:27;;;;;;;6.13;2.13;;;19.80;99.90;;;;;;4100577;29;20189;-94
2023/06/15 01:41:30;;;;;;;6.80;2.60;;;19.70;99.90;;;;;;4100612;29;20773;-92
2023/06/15 01:43:32;;;;;;;4.82;2.50;;;19.50;99.90;;;;;;4100769;29;20186;-91
2023/06/15 01:45:35;;;;;;;11.23;2.38;;;19.50;99.90;;;;;;4100884;29;20167;-91
2023/06/15 01:47:37;;;;;;;10.73;2.72;;;19.50;99.90;;;;;;4100904;28;20604;-92
2023/06/15 01:49:40;;;;;;;7.78;2.50;;;19.40;99.90;;;;;;4085074;29;20163;-92
2023/06/15 01:51:41;;;;;;;4.03;2.28;;;19.40;99.90;;;;;;4100951;29;20539;-94
2023/06/15 01:53:44;;;;;;;9.05;2.35;;;19.30;99.90;;;;;;4084852;29;20612;-91
2023/06/15 01:55:46;;;;;;;6.15;2.40;;;19.20;99.90;;;;;;4085143;29;20175;-92
2023/06/15 01:57:47;;;;;;;7.63;2.33;;;19.20;99.90;;;;;;4084339;29;20200;-92
2023/06/15 01:59:48;;;;;;;6.65;2.30;;;19.10;99.90;;;;;;4084472;29;20175;-93
2023/06/15 02:01:49;;;;;;;6.03;2.40;;;19.10;99.90;;;;;;4100603;29;20269;-93
2023/06/15 02:03:53;;;;;;;13.15;2.67;;;19.10;99.90;;;;;;4100274;29;20214;-93
2023/06/15 02:05:53;;;;;;;9.45;2.30;;;19.20;99.90;;;;;;4085193;29;20187;-92
2023/06/15 02:07:54;;;;;;;4.18;2.28;;;19.20;99.90;;;;;;4100563;28;20194;-93
2023/06/15 02:09:55;;;;;;;6.82;2.92;;;19.20;99.90;;;;;;4101498;29;20171;-93
2023/06/15 02:11:59;;;;;;;7.07;2.88;;;19.20;99.90;;;;;;4084401;29;20172;-92
2023/06/15 02:13:59;;;;;;;11.43;2.50;;;19.20;99.90;;;;;;4100786;29;20616;-92
2023/06/15 02:16:02;;;;;;;13.77;2.55;;;19.10;99.90;;;;;;4100838;29;20656;-93
2023/06/15 02:18:07;;;;;;;6.63;2.63;;;19.10;99.90;;;;;;4100729;29;20290;-91
2023/06/15 02:20:09;;;;;;;8.70;2.65;;;19.10;99.90;;;;;;4103735;28;20163;-91
2023/06/15 02:22:10;;;;;;;8.52;3.10;;;19.00;99.90;;;;;;4104233;29;20309;-93
2023/06/15 02:24:10;;;;;;;12.20;3.00;;;19.00;99.90;;;;;;4087852;29;20664;-94
2023/06/15 02:26:11;;;;;;;6.28;2.35;;;18.90;99.90;;;;;;4105376;29;20273;-93
2023/06/15 02:28:15;;;;;;;13.75;2.92;;;18.80;99.90;;;;;;4104770;29;20536;-94
2023/06/15 02:30:16;;;;;;;10.18;2.90;;;18.70;99.90;;;;;;4087825;29;20211;-93
2023/06/15 02:32:37;;;;;;;13.27;3.38;;;18.70;99.90;;;;;;4089676;29;20171;-93
2023/06/15 02:34:39;;;;;;;5.30;2.72;;;18.70;99.90;;;;;;4103879;28;20175;-92
2023/06/15 02:36:39;;;;;;;7.72;2.55;;;18.70;99.90;;;;;;4104293;28;20202;-91
2023/06/15 02:38:40;;;;;;;4.10;2.47;;;18.70;99.90;;;;;;4087993;29;20541;-94
2023/06/15 02:40:41;;;;;;;13.23;2.92;;;18.70;99.90;;;;;;4104153;29;20171;-92
2023/06/15 02:42:42;;;;;;;8.35;2.47;;;18.70;99.90;;;;;;4087415;29;20215;-91
2023/06/15 02:44:43;;;;;;;6.05;2.83;;;18.60;99.90;;;;;;4087165;29;20322;-93
2023/06/15 02:46:44;;;;;;;8.57;3.15;;;18.60;99.90;;;;;;4088242;29;20215;-91
2023/06/15 02:48:45;;;;;;;8.27;2.80;;;18.50;99.90;;;;;;4088099;29;20199;-93
2023/06/15 02:50:46;;;;;;;6.78;2.75;;;18.40;99.90;;;;;;4103276;29;20552;-91
2023/06/15 02:52:53;;;;;;;9.10;2.80;;;18.30;99.90;;;;;;4087902;29;20183;-92
2023/06/15 02:54:54;;;;;;;10.70;2.97;;;18.30;99.90;;;;;;4087041;29;20183;-92
2023/06/15 02:56:59;;;;;;;8.32;2.65;;;18.20;99.90;;;;;;4086999;29;20262;-92
2023/06/15 02:59:03;;;;;;;8.77;2.78;;;18.30;99.90;;;;;;4086794;29;20172;-91
2023/06/15 03:01:39;;;;;;;4.95;2.80;;;18.30;99.90;;;;;;4095792;29;20211;-92
2023/06/15 03:03:43;;;;;;;17.30;3.15;;;18.20;99.90;;;;;;4102708;28;20171;-92
2023/06/15 03:05:45;;;;;;;6.65;3.05;;;18.20;99.90;;;;;;4086144;29;20188;-91
2023/06/15 03:07:47;;;;;;;6.53;2.47;;;18.30;99.90;;;;;;4085990;29;20206;-91
2023/06/15 03:10:00;;;;;;;11.18;3.20;;;18.30;99.90;;;;;;4087701;28;20178;-91
2023/06/15 03:12:02;;;;;;;9.13;2.83;;;18.30;99.90;;;;;;4086186;29;20222;-91
2023/06/15 03:14:12;;;;;;;11.55;2.72;;;18.30;99.90;;;;;;4102035;29;20170;-92
2023/06/15 03:16:16;;;;;;;7.93;3.20;;;18.40;99.90;;;;;;4101879;29;20597;-93
2023/06/15 03:18:20;;;;;;;8.63;3.28;;;18.40;99.90;;;;;;4086155;29;20577;-92
2023/06/15 03:20:21;;;;;;;4.53;2.70;;;18.40;99.90;;;;;;4101667;29;20183;-91
2023/06/15 03:22:24;;;;;;;10.25;3.00;;;18.40;99.90;;;;;;4101868;29;20264;-92
2023/06/15 03:24:25;;;;;;;9.43;3.10;;;18.40;99.90;;;;;;4101917;29;20171;-91
2023/06/15 03:26:26;;;;;;;11.45;3.47;;;18.30;99.90;;;;;;4085995;29;20180;-92
2023/06/15 03:28:28;;;;;;;8.60;3.20;;;18.20;99.90;;;;;;4085994;29;20175;-90
2023/06/15 03:30:29;;;;;;;6.82;2.88;;;18.20;99.90;;;;;;4101573;29;20297;-92
2023/06/15 03:32:32;;;;;;;7.57;3.38;;;18.10;99.90;;;;;;4084863;29;20168;-91
2023/06/15 03:34:35;;;;;;;7.35;3.35;;;18.10;99.90;;;;;;4085679;29;20171;-91
2023/06/15 03:36:36;;;;;;;10.18;3.50;;;18.10;99.90;;;;;;4101565;28;20191;-92
2023/06/15 03:38:37;;;;;;;10.50;3.33;;;18.10;99.90;;;;;;4101809;29;20521;-91
2023/06/15 03:40:38;;;;;;;5.20;3.05;;;18.10;99.90;;;;;;4101285;29;20288;-93
2023/06/15 03:42:40;;;;;;;8.63;3.20;;;18.10;99.90;;;;;;4101440;29;20210;-91
2023/06/15 03:44:42;;;;;;;8.95;3.33;;;18.10;99.90;;;;;;4101345;29;20248;-91
2023/06/15 03:46:44;;;;;;;8.05;3.45;;;18.00;99.90;;;;;;4085571;29;20217;-91
2023/06/15 03:48:45;;;;;;;10.07;2.90;;;17.90;99.90;;;;;;4085574;29;20239;-91
2023/06/15 03:50:46;;;;;;;7.93;3.22;;;17.80;99.90;;;;;;4085733;29;20210;-92
2023/06/15 03:52:48;;;;;;;7.95;3.05;;;17.70;99.90;;;;;;4085788;29;20314;-91
2023/06/15 03:54:49;;;;;;;15.80;3.42;;;17.60;99.90;;;;;;4085431;29;20661;-90
2023/06/15 03:56:50;;;;;;;11.05;3.75;;;17.60;99.90;;;;;;4101114;28;20195;-92
2023/06/15 03:58:51;;;;;;;9.32;2.85;;;17.50;99.90;;;;;;4101196;29;20171;-91
2023/06/15 04:00:52;;;;;;;7.20;3.15;;;17.40;99.90;;;;;;4085283;29;20171;-91
2023/06/15 04:02:53;;;;;;;8.88;3.10;;;17.40;99.90;;;;;;4085561;29;20211;-92
2023/06/15 04:04:56;;;;;;;13.10;3.15;;;17.40;99.90;;;;;;4089135;29;20684;-92
2023/06/15 04:06:58;;;;;;;10.35;3.30;;;17.40;99.90;;;;;;4102569;29;20196;-91
2023/06/15 04:08:59;;;;;;;9.45;3.42;;;17.30;99.90;;;;;;4091787;29;20220;-91
2023/06/15 04:11:00;;;;;;;6.63;3.30;;;17.30;99.90;;;;;;4086276;29;20172;-91
2023/06/15 04:13:01;;;;;;;13.40;3.38;;;17.30;99.90;;;;;;4101772;29;20640;-92
2023/06/15 04:15:03;;;;;;;10.43;3.55;;;17.20;99.90;;;;;;4101724;29;20644;-91
2023/06/15 04:17:05;;;;;;;8.35;3.33;;;17.30;99.90;;;;;;4101099;28;20250;-91
2023/06/15 04:19:07;;;;;;;12.02;3.50;;;17.20;99.90;;;;;;4085185;29;20633;-90
2023/06/15 04:21:08;;;;;;;7.30;3.33;;;17.30;99.90;;;;;;4085439;29;20280;-92
2023/06/15 04:23:10;;;;;;;6.45;3.40;;;17.30;99.90;;;;;;4085079;29;20211;-92
2023/06/15 04:25:12;;;;;;;14.30;3.72;;;17.30;99.90;;;;;;4085149;29;20183;-92
2023/06/15 04:27:13;;;;;;;9.43;3.38;;;17.30;99.90;;;;;;4100864;28;20195;-92
2023/06/15 04:29:18;;;;;;;9.98;3.47;;;17.30;99.90;;;;;;4085021;29;20191;-92
2023/06/15 04:31:21;;;;;;;9.45;3.80;;;17.40;99.90;;;;;;4084995;29;20223;-92
2023/06/15 04:33:23;;;;;;;5.35;3.50;;;17.50;99.90;;;;;;4101015;29;20213;-93
2023/06/15 04:35:24;;;;;;;10.23;3.60;;;17.50;99.90;;;;;;4084797;29;20180;-92
2023/06/15 04:37:28;;;;;;;13.93;3.30;;;17.60;99.90;;;;;;4084808;29;20191;-93
2023/06/15 04:39:30;;;;;;;9.93;3.85;;;17.70;99.90;;;;;;4084927;29;20191;-91
2023/06/15 04:41:35;;;;;;;6.82;3.92;;;17.70;99.90;;;;;;4100416;29;20206;-92
2023/06/15 04:43:39;;;;;;;6.47;3.47;;;17.70;99.90;;;;;;4085114;29;20723;-91
2023/06/15 04:45:40;;;;;;;11.18;3.58;;;17.80;99.90;;;;;;4100520;28;20652;-92
2023/06/15 04:47:42;;;;;;;11.18;4.20;;;17.80;99.90;;;;;;4084810;29;20319;-93
2023/06/15 04:49:44;;;;;;;15.38;3.58;;;17.90;99.90;;;;;;4100997;29;20657;-91
2023/06/15 04:51:44;;;;;;;8.98;3.72;;;18.00;99.90;;;;;;4084690;29;20261;-92
2023/06/15 04:53:45;;;;;;;6.65;3.50;;;18.00;99.90;;;;;;4084569;29;20607;-91
2023/06/15 04:55:48;;;;;;;10.68;4.18;;;18.00;99.90;;;;;;4084793;29;20172;-92
2023/06/15 04:57:49;;;;;;;9.23;3.85;;;18.00;99.90;;;;;;4084578;29;20202;-91
2023/06/15 04:59:50;;;;;;;14.43;4.25;;;17.90;99.90;;;;;;4084757;29;20168;-91
2023/06/15 05:01:51;;;;;;;8.27;3.92;;;17.90;99.90;;;;;;4084603;29;20211;-90
2023/06/15 05:04:00;;;;;;;12.13;3.95;;;17.90;99.90;;;;;;4085176;29;20171;-91
2023/06/15 05:06:01;;;;;;;10.00;3.95;;;18.00;99.90;;;;;;4084387;29;20631;-92
2023/06/15 05:08:04;;;;;;;9.10;3.95;;;18.10;99.90;;;;;;4100523;28;20245;-91
2023/06/15 05:10:07;;;;;;;16.00;4.20;;;18.10;99.90;;;;;;4100390;29;20197;-92
2023/06/15 05:12:09;;;;;;;14.38;4.65;;;18.10;99.90;;;;;;4100193;28;20606;-92
2023/06/15 05:14:10;;;;;;;9.52;3.63;;;18.10;99.90;;;;;;4100382;29;20179;-91
2023/06/15 05:16:10;;;;;;;10.82;4.15;;;18.20;99.90;;;;;;4084342;29;20246;-91
2023/06/15 05:18:13;;;;;;;19.70;4.88;;;18.20;99.90;;;;;;4084725;29;20176;-91
2023/06/15 05:20:14;;;;;;;10.90;4.50;;;18.20;99.90;;;;;;4084394;29;20175;-91
2023/06/15 05:22:15;;;;;;;13.48;4.47;;;18.20;99.90;;;;;;4084114;29;20571;-91
2023/06/15 05:24:16;;;;;;;21.92;4.68;;;18.30;99.90;;;;;;4100117;28;20179;-91
2023/06/15 05:26:18;;;;;;;8.73;4.25;;;18.40;99.90;;;;;;4084259;29;20176;-92
2023/06/15 05:28:20;;;;;;;18.67;5.35;;;18.50;99.90;;;;;;4100099;29;20175;-92
2023/06/15 05:30:26;;;;;;;9.52;4.75;;;18.60;99.90;;;;;;4084444;29;20182;-91
2023/06/15 05:32:27;;;;;;;12.88;4.75;;;18.70;99.90;;;;;;4100108;29;20186;-90
2023/06/15 05:34:27;;;;;;;13.18;4.13;;;18.90;99.90;;;;;;4084041;29;20180;-91
2023/06/15 05:36:30;;;;;;;11.00;5.03;;;18.90;99.90;;;;;;4100196;28;20269;-91
2023/06/15 05:38:31;;;;;;;12.95;4.85;;;18.90;99.90;;;;;;4100495;29;20173;-91
2023/06/15 05:40:32;;;;;;;8.52;4.75;;;18.70;99.90;;;;;;4084314;29;20183;-90
2023/06/15 05:42:32;;;;;;;16.90;5.00;;;18.70;99.90;;;;;;4100235;29;20211;-91
2023/06/15 05:44:33;;;;;;;10.10;4.50;;;18.80;99.90;;;;;;4100321;29;20766;-91
2023/06/15 05:46:35;;;;;;;11.65;4.28;;;18.90;99.90;;;;;;4099935;28;20202;-91
2023/06/15 05:48:36;;;;;;;17.85;5.35;;;19.00;99.90;;;;;;4084077;29;20175;-92
2023/06/15 05:50:37;;;;;;;16.00;4.55;;;19.10;99.90;;;;;;4099919;29;20680;-90
2023/06/15 05:52:37;;;;;;;12.93;3.88;;;19.30;99.90;;;;;;4099856;29;20182;-90
2023/06/15 05:54:38;;;;;;;12.32;4.05;;;19.40;99.90;;;;;;4084004;29;20218;-91
2023/06/15 05:56:39;;;;;;;9.07;4.68;;;19.30;99.90;;;;;;4087099;29;20195;-90
2023/06/15 05:58:40;;;;;;;10.80;4.55;;;19.40;99.90;;;;;;4087415;29;20178;-92
2023/06/15 06:00:42;;;;;;;10.82;4.10;;;19.40;99.90;;;;;;4103338;28;20620;-91
2023/06/15 06:02:43;;;;;;;8.13;3.95;;;19.60;99.90;;;;;;4102855;29;20242;-91
2023/06/15 06:04:52;;;;;;;11.65;3.92;;;19.70;99.90;;;;;;4088303;29;20256;-91
2023/06/15 06:06:52;;;;;;;13.82;3.67;;;19.70;99.90;;;;;;4087187;29;20244;-91
2023/06/15 06:08:53;;;;;;;15.93;4.20;;;19.50;99.90;;;;;;4087022;29;20179;-91
2023/06/15 06:10:54;;;;;;;21.38;4.55;;;19.70;99.90;;;;;;4102791;29;20179;-90
2023/06/15 06:13:06;;;;;;;11.32;3.95;;;20.10;99.90;;;;;;4104359;28;20271;-90
2023/06/15 06:15:07;;;;;;;11.45;4.10;;;20.00;99.90;;;;;;4102687;29;20235;-91
2023/06/15 06:17:08;;;;;;;18.70;3.83;;;19.80;99.90;;;;;;4103035;28;20548;-92
2023/06/15 06:19:10;;;;;;;27.95;3.95;;;19.80;99.90;;;;;;4102944;28;20270;-91
2023/06/15 06:21:11;;;;;;;18.75;4.00;;;19.80;99.90;;;;;;4102965;29;20197;-91
2023/06/15 06:23:12;;;;;;;10.27;3.92;;;20.00;99.90;;;;;;4086977;29;20635;-91
2023/06/15 06:25:12;;;;;;;17.10;4.85;;;20.50;99.90;;;;;;4102660;29;20167;-89
2023/06/15 06:27:13;;;;;;;10.10;4.05;;;20.80;99.90;;;;;;4102729;28;20232;-93
2023/06/15 06:29:14;;;;;;;22.67;5.03;;;21.20;99.90;;;;;;4102623;29;20616;-92
2023/06/15 06:31:15;;;;;;;15.48;4.38;;;21.20;99.90;;;;;;4086798;29;20187;-89
2023/06/15 06:33:15;;;;;;;18.73;4.30;;;21.10;99.90;;;;;;4086821;29;20183;-93
2023/06/15 06:35:16;;;;;;;11.60;3.65;;;21.10;99.90;;;;;;4087193;29;20258;-91
2023/06/15 06:37:17;;;;;;;13.32;3.80;;;21.30;99.90;;;;;;4086635;29;20202;-90
2023/06/15 06:39:18;;;;;;;13.10;3.80;;;21.20;99.90;;;;;;4086572;29;20735;-91
2023/06/15 06:41:19;;;;;;;15.73;3.75;;;21.50;99.90;;;;;;4086675;29;20183;-92
2023/06/15 06:43:19;;;;;;;17.30;3.78;;;21.80;99.90;;;;;;4086578;29;20235;-92
2023/06/15 06:45:20;;;;;;;11.20;3.90;;;21.70;99.90;;;;;;4102483;29;20211;-92
2023/06/15 06:47:21;;;;;;;10.30;3.42;;;21.70;99.90;;;;;;4102153;28;20208;-91
2023/06/15 06:49:22;;;;;;;10.95;3.80;;;21.70;99.90;;;;;;4086814;29;20214;-91
2023/06/15 06:51:23;;;;;;;6.60;3.00;;;22.00;99.90;;;;;;4086721;29;20180;-91
2023/06/15 06:53:23;;;;;;;11.75;3.08;;;22.10;99.90;;;;;;4102602;29;20671;-90
2023/06/15 06:55:24;;;;;;;12.55;3.25;;;22.10;99.90;;;;;;4087145;29;20184;-91
2023/06/15 06:57:25;;;;;;;10.05;3.15;;;22.00;99.90;;;;;;4102310;29;20191;-93
2023/06/15 06:59:25;;;;;;;15.77;3.28;;;22.20;99.90;;;;;;4086737;29;20183;-91
2023/06/15 07:01:27;;;;;;;38.55;4.13;;;22.30;99.90;;;;;;4086367;29;20560;-92
2023/06/15 07:03:28;;;;;;;9.05;2.83;;;22.30;99.90;;;;;;4086252;29;20264;-92
2023/06/15 07:05:28;;;;;;;7.82;3.03;;;22.40;99.90;;;;;;4086244;29;20192;-91
2023/06/15 07:07:29;;;;;;;15.75;2.88;;;22.50;99.90;;;;;;4084843;29;20202;-95
2023/06/15 07:09:31;;;;;;;17.58;2.97;;;22.70;99.90;;;;;;4086240;29;20171;-93
2023/06/15 07:11:32;;;;;;;12.52;2.90;;;23.10;99.90;;;;;;4086318;29;20176;-93
2023/06/15 07:13:33;;;;;;;5.13;2.65;;;23.50;99.90;;;;;;4086229;29;20168;-92
2023/06/15 07:15:34;;;;;;;13.32;2.80;;;24.00;99.90;;;;;;4086286;29;20641;-92
2023/06/15 07:17:35;;;;;;;10.52;2.80;;;25.20;99.90;;;;;;4101921;28;20261;-94
2023/06/15 07:19:36;;;;;;;14.73;3.22;;;26.60;99.90;;;;;;4086250;29;20278;-94
2023/06/15 07:21:37;;;;;;;13.40;2.60;;;28.10;99.90;;;;;;4103046;29;20206;-93
2023/06/15 07:23:38;;;;;;;10.95;2.72;;;29.00;99.90;;;;;;4107774;29;20243;-93
2023/06/15 07:25:39;;;;;;;10.57;2.85;;;29.40;99.80;;;;;;4109124;29;20552;-92
2023/06/15 07:27:40;;;;;;;10.35;2.70;;;29.60;99.90;;;;;;4104519;29;20202;-92
2023/06/15 07:29:40;;;;;;;11.45;2.83;;;30.20;99.90;;;;;;4087838;29;20183;-94
2023/06/15 07:31:41;;;;;;;7.60;2.42;;;30.90;99.10;;;;;;4085874;29;20175;-95
2023/06/15 07:33:42;;;;;;;10.02;2.75;;;31.50;97.70;;;;;;4085753;29;20283;-93
2023/06/15 07:35:46;;;;;;;13.73;2.85;;;32.00;96.80;;;;;;4085960;29;20176;-95
2023/06/15 07:37:47;;;;;;;10.25;2.90;;;32.50;96.60;;;;;;4101677;29;20222;-93
2023/06/15 07:39:50;;;;;;;4.28;2.30;;;32.80;96.00;;;;;;4101650;28;20221;-94
2023/06/15 07:41:51;;;;;;;6.00;2.05;;;32.50;96.20;;;;;;4101767;29;20579;-93
2023/06/15 07:43:52;;;;;;;9.45;2.30;;;31.60;95.40;;;;;;4085745;29;20530;-92
2023/06/15 07:45:52;;;;;;;12.00;2.88;;;31.00;95.90;;;;;;4101732;29;20730;-93
2023/06/15 07:47:53;;;;;;;15.73;3.05;;;31.60;96.00;;;;;;4101431;28;20238;-93
2023/06/15 07:49:54;;;;;;;5.75;2.50;;;31.70;96.00;;;;;;4101498;29;20266;-92
2023/06/15 07:51:55;;;;;;;12.88;2.78;;;32.00;96.30;;;;;;4085713;29;20175;-93
2023/06/15 07:53:56;;;;;;;18.17;3.15;;;32.10;95.60;;;;;;4086113;29;20664;-92
2023/06/15 07:55:56;;;;;;;13.55;2.45;;;32.20;95.10;;;;;;4085777;29;20183;-94
2023/06/15 07:57:57;;;;;;;11.27;2.40;;;31.90;95.40;;;;;;4085705;29;20191;-96
2023/06/15 07:59:58;;;;;;;6.93;2.17;;;31.40;95.30;;;;;;4101230;29;20183;-92
2023/06/15 08:02:02;;;;;;;8.85;2.53;;;31.30;95.50;;;;;;4085313;29;20215;-94
2023/06/15 08:04:06;;;;;;;13.85;2.45;;;31.30;95.30;;;;;;4101346;29;20202;-95
2023/06/15 08:06:10;;;;;;;9.63;2.65;;;31.00;95.70;;;;;;4085183;29;20186;-94
2023/06/15 08:08:11;;;;;;;6.38;2.45;;;30.30;95.90;;;;;;4085652;29;20192;-94
2023/06/15 08:10:12;;;;;;;6.07;1.83;;;29.60;96.50;;;;;;4101050;29;20265;-94
2023/06/15 08:12:12;;;;;;;6.85;2.10;;;29.40;96.00;;;;;;4085817;29;20164;-95
2023/06/15 08:14:19;;;;;;;6.97;2.78;;;29.20;96.90;;;;;;4085727;29;20183;-95
2023/06/15 08:16:19;;;;;;;7.72;1.88;;;28.90;97.40;;;;;;4101283;28;20202;-94
2023/06/15 08:18:20;;;;;;;2.97;2.08;;;28.80;96.70;;;;;;4084783;29;20200;-93
2023/06/15 08:20:21;;;;;;;4.90;2.20;;;28.60;96.90;;;;;;4085344;29;20171;-94
2023/06/15 08:22:22;;;;;;;8.88;2.20;;;28.60;96.80;;;;;;4085325;29;20306;-94
2023/06/15 08:24:22;;;;;;;10.18;2.42;;;28.60;97.30;;;;;;4101182;29;20185;-92
2023/06/15 08:26:23;;;;;;;10.48;2.22;;;28.40;97.60;;;;;;4100992;28;20175;-93
2023/06/15 08:28:24;;;;;;;6.13;1.88;;;28.00;97.60;;;;;;4085242;29;20168;-92
2023/06/15 08:30:26;;;;;;;5.50;2.17;;;27.80;98.10;;;;;;4085097;29;20180;-94
2023/06/15 08:32:29;;;;;;;3.22;2.03;;;27.60;98.20;;;;;;4084874;29;20635;-95
2023/06/15 08:34:30;;;;;;;6.10;2.25;;;27.60;97.80;;;;;;4085243;29;20211;-94
2023/06/15 08:36:30;;;;;;;5.35;1.90;;;28.20;97.10;;;;;;4101191;28;20170;-93
2023/06/15 08:38:31;;;;;;;7.53;2.03;;;28.70;97.20;;;;;;4101030;29;20179;-93
2023/06/15 08:40:32;;;;;;;7.78;2.50;;;29.00;97.00;;;;;;4085135;29;20278;-95
2023/06/15 08:42:34;;;;;;;8.63;2.10;;;28.90;97.20;;;;;;4100992;29;20225;-93
2023/06/15 08:44:35;;;;;;;6.88;1.92;;;29.10;96.90;;;;;;4084978;29;20187;-94
2023/06/15 08:46:36;;;;;;;7.32;1.95;;;29.00;97.00;;;;;;4100896;28;20223;-93
2023/06/15 08:48:38;;;;;;;8.70;2.40;;;28.70;96.80;;;;;;4084914;29;20250;-95
2023/06/15 08:50:40;;;;;;;4.55;2.10;;;28.50;97.80;;;;;;4100996;29;20175;-95
2023/06/15 08:52:45;;;;;;;7.03;1.92;;;28.40;97.80;;;;;;4100856;29;20171;-94
2023/06/15 08:54:46;;;;;;;6.45;2.20;;;28.50;96.60;;;;;;4085064;29;20643;-93
2023/06/15 08:56:47;;;;;;;9.43;2.53;;;28.80;97.90;;;;;;4084728;29;20199;-92
2023/06/15 08:58:51;;;;;;;8.50;2.13;;;29.20;96.90;;;;;;4100972;29;20218;-92
2023/06/15 09:00:54;;;;;;;7.18;1.92;;;29.00;96.90;;;;;;4100341;29;20177;-93
2023/06/15 09:02:59;;;;;;;7.63;2.30;;;28.50;97.00;;;;;;4100610;29;20294;-95
2023/06/15 09:05:00;;;;;;;7.78;2.25;;;28.40;97.30;;;;;;4110119;29;20510;-94
2023/06/15 09:07:01;;;;;;;7.63;1.92;;;28.60;97.20;;;;;;4096200;29;20231;-93
2023/06/15 09:09:03;;;;;;;6.20;2.10;;;28.90;96.20;;;;;;4098958;29;20163;-92
2023/06/15 09:11:08;;;;;;;8.50;2.75;;;29.10;95.70;;;;;;4111403;29;20175;-94
2023/06/15 09:13:16;;;;;;;7.43;2.08;;;29.30;96.90;;;;;;4101722;29;20186;-93
2023/06/15 09:15:36;;;;;;;4.05;2.00;;;29.10;96.00;;;;;;4102308;29;20207;-95
2023/06/15 09:17:37;;;;;;;6.97;2.10;;;28.50;96.90;;;;;;4084807;29;20207;-92
2023/06/15 09:19:38;;;;;;;9.45;2.60;;;28.20;96.80;;;;;;4084458;29;20313;-92
2023/06/15 09:21:50;;;;;;;11.35;2.47;;;28.40;96.70;;;;;;4084593;29;20601;-92
2023/06/15 09:23:50;;;;;;;10.02;2.05;;;28.40;96.70;;;;;;4100783;29;20238;-93
2023/06/15 09:25:52;;;;;;;5.78;1.98;;;28.80;95.60;;;;;;4100506;29;20676;-93
2023/06/15 09:27:57;;;;;;;9.32;2.25;;;29.10;96.30;;;;;;4100221;28;20186;-94
2023/06/15 09:30:05;;;;;;;10.63;2.67;;;29.00;96.60;;;;;;4083787;29;20179;-94
2023/06/15 09:32:06;;;;;;;18.40;3.03;;;28.80;96.40;;;;;;4084374;29;20163;-92
2023/06/15 09:34:11;;;;;;;6.68;1.98;;;28.80;96.10;;;;;;4083803;29;20620;-96
2023/06/15 09:36:12;;;;;;;11.02;2.85;;;28.80;96.90;;;;;;4100226;29;20167;-92
2023/06/15 09:38:15;;;;;;;3.95;2.08;;;29.00;96.70;;;;;;4084383;29;20194;-94
2023/06/15 09:40:16;;;;;;;7.63;2.08;;;29.50;96.00;;;;;;4100211;29;20182;-94
2023/06/15 09:42:17;;;;;;;17.25;2.60;;;29.40;95.40;;;;;;4084719;29;20218;-93
2023/06/15 09:44:20;;;;;;;3.13;2.28;;;29.70;95.70;;;;;;4084323;29;20543;-95
2023/06/15 09:46:28;;;;;;;4.40;2.13;;;30.00;95.60;;;;;;4099996;28;20175;-93
2023/06/15 09:48:30;;;;;;;6.13;2.45;;;29.70;96.10;;;;;;4100543;29;20166;-93
2023/06/15 09:50:31;;;;;;;4.35;2.10;;;29.80;95.50;;;;;;4084157;29;20183;-93
2023/06/15 09:52:36;;;;;;;7.57;2.50;;;29.90;95.20;;;;;;4084052;29;20180;-94
2023/06/15 09:54:39;;;;;;;13.63;2.40;;;30.10;95.10;;;;;;4084052;29;20279;-94
2023/06/15 09:56:42;;;;;;;8.65;2.10;;;30.10;95.20;;;;;;4100002;28;20257;-94
2023/06/15 09:58:43;;;;;;;8.80;2.22;;;30.00;95.30;;;;;;4099871;29;20170;-94
2023/06/15 10:00:43;;;;;;;6.38;2.28;;;30.00;95.50;;;;;;4084094;29;20202;-93
2023/06/15 10:02:47;;;;;;;9.77;2.22;;;30.10;95.80;;;;;;4083813;29;20302;-92
2023/06/15 10:04:48;;;;;;;5.40;1.98;;;30.10;95.10;;;;;;4099428;29;20206;-93
2023/06/15 10:06:57;;;;;;;3.90;2.00;;;30.20;94.50;;;;;;4099678;28;20202;-93
2023/06/15 10:09:00;;;;;;;5.25;1.95;;;30.30;95.40;;;;;;4099527;29;20202;-91
2023/06/15 10:11:01;;;;;;;6.75;2.30;;;30.00;95.70;;;;;;4099709;29;20535;-95
2023/06/15 10:13:05;;;;;;;12.00;3.28;;;29.50;95.70;;;;;;4099527;29;20262;-93
2023/06/15 10:15:12;;;;;;;3.17;1.80;;;29.40;95.20;;;;;;4099829;29;20322;-92
2023/06/15 10:17:16;;;;;;;4.47;2.15;;;29.60;95.10;;;;;;4099403;28;20194;-93
2023/06/15 10:19:20;;;;;;;11.27;2.20;;;29.70;94.70;;;;;;4099989;29;20702;-93
2023/06/15 10:21:26;;;;;;;5.00;2.15;;;30.10;94.80;;;;;;4099983;29;20174;-94
2023/06/15 10:23:27;;;;;;;8.43;2.20;;;30.00;95.20;;;;;;4099649;29;20656;-92
2023/06/15 10:25:30;;;;;;;14.85;2.33;;;30.10;94.80;;;;;;4083644;29;20164;-94
2023/06/15 10:27:31;;;;;;;6.32;2.53;;;29.80;95.10;;;;;;4099832;29;20195;-92
2023/06/15 10:29:43;;;;;;;6.15;2.00;;;29.40;94.40;;;;;;4083763;29;20172;-93
2023/06/15 10:31:55;;;;;;;6.20;2.35;;;28.80;94.20;;;;;;4083816;29;20183;-90
2023/06/15 10:34:12;;;;;;;9.25;2.25;;;28.60;95.40;;;;;;4100024;29;20600;-93